KNTU/NTU METAR and TAF weather

Enter ICAO airport designator
Station Type Date Time Source
KNTU METAR 2021/08/05 04:56 UTC NOAA

KNTU 050456Z 02010KT 10SM OVC012 23/19 A3003 RMK AO2 SLP172 T02280194 402440217


Station Type Date Time Source
KNTU Decoded METAR 2021/08/05 04:56 UTC NOAA

OCEANA, NAVAL AIR STATION, VA, United States (KNTU) 36-49N 076-02W 6M
Aug 05, 2021 - 12:56 AM EDT / 2021.08.05 0456 UTC
Wind: from the NNE (020 degrees) at 12 MPH (10 KT):0
Visibility: 10 mile(s):0
Sky conditions: overcast
Temperature: 73.0 F (22.8 C)
Dew Point: 66.9 F (19.4 C)
Relative Humidity: 81%
Pressure (altimeter): 30.03 in. Hg (1016 hPa)
ob: KNTU 050456Z 02010KT 10SM OVC012 23/19 A3003 RMK AO2 SLP172 T02280194 402440217
cycle: 5

Station Type Date Time Source
KNTU TAF 2021/08/04 23:49 UTC NOAA

TAF COR KNTU 0423/0523 02010KT 03012G18KT 9000 BR BKN015 OVC030 QNH2996INS
TEMPO 0423/0505 4800 SHRA BKN007 OVC030
FM050500 03012KT 6000 BR BKN010 OVC020 QNH2995INS
FM051200 01008KT 9999 BKN130 BKN250 QNH3000INS
FM051800 VRB06KT 9999 SCT250 QNH3010INS T21/0510Z T27/0519Z COR 2315 FN20051

Example: see airport list